Terminal Aerodrome Forecast
Issued by NWS

Home | Current Version | Previous Version | Text Only | Print | Product List | Glossary On
Versions: 1 2 3 4 5 6 7 8 9 10 11 12 13 14 15 16 17 18 19 20 21
000
FTUS43 KAPX 301700
TAFAPN
TAF
KAPN 301723Z 3018/3118 32008KT P6SM SCT028 BKN250
     FM310000 VRB03KT P6SM -SHRA BKN080
     FM311200 24011KT P6SM BKN080=

USA.gov is the U.S. government's official web portal to all federal, state and local government web resources and services.